createdAt,value
2023-01-28T00:01:17.215Z,60.03
2023-01-28T00:03:43.854Z,59.89
2023-01-28T00:06:13.602Z,61.36
2023-01-28T00:08:40.918Z,60.31
2023-01-28T00:11:10.136Z,59.89
2023-01-28T00:13:36.603Z,60.92
2023-01-28T00:16:06.112Z,61.99
2023-01-28T00:18:33.531Z,61.46
2023-01-28T00:21:11.787Z,60.96
2023-01-28T00:23:40.582Z,61.04
2023-01-28T00:26:10.604Z,61.57
2023-01-28T00:28:37.054Z,62.01
2023-01-28T00:31:13.856Z,61.51
2023-01-28T00:33:40.267Z,61.10
2023-01-28T00:36:07.056Z,61.17
2023-01-28T00:38:34.373Z,61.60
2023-01-28T00:41:11.731Z,61.65
2023-01-28T00:43:38.729Z,60.70
2023-01-28T00:46:07.388Z,60.04
2023-01-28T00:48:35.294Z,59.30
2023-01-28T00:51:02.370Z,60.31
2023-01-28T00:53:29.344Z,61.40
2023-01-28T00:55:56.009Z,62.26
2023-01-28T00:58:24.124Z,60.82
2023-01-28T01:00:51.295Z,60.55
2023-01-28T01:03:18.537Z,59.19
2023-01-28T01:05:45.170Z,59.74
2023-01-28T01:08:11.896Z,61.09
2023-01-28T01:10:39.303Z,60.82
2023-01-28T01:13:06.850Z,58.73
2023-01-28T01:15:33.882Z,58.70
2023-01-28T01:18:00.357Z,58.21
2023-01-28T01:20:28.812Z,58.90
2023-01-28T01:22:56.545Z,61.13
2023-01-28T01:25:23.005Z,61.54
2023-01-28T01:27:50.223Z,60.43
2023-01-28T01:30:17.170Z,59.46
2023-01-28T01:32:43.745Z,59.20
2023-01-28T01:35:10.763Z,58.99
2023-01-28T01:37:37.762Z,59.05
2023-01-28T01:40:05.546Z,57.06
2023-01-28T01:42:33.325Z,58.74
2023-01-28T01:45:12.616Z,57.11
2023-01-28T01:47:46.023Z,58.40
2023-01-28T01:50:29.008Z,58.07
2023-01-28T01:53:01.856Z,58.30
2023-01-28T01:55:31.843Z,59.15
2023-01-28T01:58:02.747Z,58.73
2023-01-28T02:00:29.203Z,57.99
2023-01-28T02:02:56.707Z,57.18
2023-01-28T02:05:23.329Z,58.83
2023-01-28T02:07:55.047Z,57.99
2023-01-28T02:10:23.059Z,58.37
2023-01-28T02:12:56.350Z,59.79
2023-01-28T02:15:25.493Z,60.68
2023-01-28T02:17:52.662Z,59.98
2023-01-28T02:20:25.652Z,59.36
2023-01-28T02:23:14.264Z,58.49
2023-01-28T02:26:07.279Z,58.70
2023-01-28T02:28:55.473Z,59.53
2023-01-28T02:31:34.612Z,58.86
2023-01-28T02:34:23.533Z,57.88
2023-01-28T02:37:03.965Z,57.13
2023-01-28T02:39:36.031Z,57.79
2023-01-28T02:42:07.731Z,58.60
2023-01-28T02:44:34.153Z,59.45
2023-01-28T02:47:19.298Z,57.41
2023-01-28T02:49:55.108Z,57.27
2023-01-28T02:52:58.942Z,57.47
2023-01-28T02:55:31.469Z,57.48
2023-01-28T02:58:21.439Z,56.10
2023-01-28T03:00:54.842Z,54.64
2023-01-28T03:03:42.672Z,58.01
2023-01-28T03:06:14.933Z,56.57
2023-01-28T03:09:12.122Z,56.73
2023-01-28T03:12:17.736Z,56.01
2023-01-28T03:15:08.173Z,56.75
2023-01-28T03:18:17.094Z,55.43
2023-01-28T03:21:32.291Z,54.10
2023-01-28T03:24:21.691Z,54.44
2023-01-28T03:27:28.988Z,56.06
2023-01-28T03:30:17.337Z,56.68
2023-01-28T03:33:03.468Z,53.35
2023-01-28T03:35:51.692Z,52.33
2023-01-28T03:38:23.094Z,51.79
2023-01-28T03:41:00.103Z,52.73
2023-01-28T03:43:27.139Z,53.88
2023-01-28T03:45:55.438Z,55.61
2023-01-28T03:48:24.326Z,54.36
2023-01-28T03:50:51.953Z,53.20
2023-01-28T03:53:19.424Z,53.15
2023-01-28T03:55:48.540Z,55.16
2023-01-28T03:58:15.880Z,54.49
2023-01-28T04:00:43.344Z,54.18
2023-01-28T04:03:17.433Z,52.76
2023-01-28T04:06:01.743Z,52.65
2023-01-28T04:08:28.501Z,52.83
2023-01-28T04:10:55.328Z,52.73
2023-01-28T04:13:22.045Z,53.48
2023-01-28T04:15:48.848Z,53.90
2023-01-28T04:18:15.355Z,53.13
2023-01-28T04:20:41.830Z,54.71
2023-01-28T04:23:08.664Z,53.46
2023-01-28T04:25:35.268Z,53.75
2023-01-28T04:28:01.705Z,52.27
2023-01-28T04:30:28.265Z,53.43
2023-01-28T04:32:54.881Z,55.15
2023-01-28T04:35:21.340Z,54.85
2023-01-28T04:37:47.770Z,54.89
2023-01-28T04:40:14.280Z,53.60
2023-01-28T04:42:40.772Z,55.40
2023-01-28T04:45:07.915Z,55.98
2023-01-28T04:47:34.751Z,54.15
2023-01-28T04:50:01.175Z,54.82
2023-01-28T04:52:27.606Z,56.48
2023-01-28T04:54:54.034Z,53.97
2023-01-28T04:57:20.477Z,54.17
2023-01-28T04:59:46.885Z,53.85
2023-01-28T05:02:13.341Z,53.40
2023-01-28T05:04:39.775Z,54.42
2023-01-28T05:07:06.261Z,52.81
2023-01-28T05:09:32.735Z,52.10
2023-01-28T05:11:59.165Z,51.41
2023-01-28T05:14:25.569Z,52.75
2023-01-28T05:16:52.048Z,54.06
2023-01-28T05:19:18.504Z,51.34
2023-01-28T05:21:44.943Z,51.88
2023-01-28T05:24:11.951Z,50.28
2023-01-28T05:26:38.527Z,52.49
2023-01-28T05:29:04.936Z,52.65
2023-01-28T05:31:31.411Z,53.19
2023-01-28T05:33:58.025Z,54.77
2023-01-28T05:36:24.517Z,52.05
2023-01-28T05:38:51.021Z,52.21
2023-01-28T05:41:17.636Z,51.91
2023-01-28T05:43:44.061Z,51.86
2023-01-28T05:46:10.481Z,50.59
2023-01-28T05:48:36.972Z,51.72
2023-01-28T05:51:05.134Z,51.55
2023-01-28T05:53:32.367Z,50.61
2023-01-28T05:55:58.797Z,51.99
2023-01-28T05:58:27.066Z,49.62
2023-01-28T06:00:56.071Z,50.20
2023-01-28T06:03:22.539Z,50.21
2023-01-28T06:05:49.081Z,50.35
2023-01-28T06:08:15.670Z,50.88
2023-01-28T06:10:42.123Z,50.35
2023-01-28T06:13:08.556Z,53.84
2023-01-28T06:15:35.049Z,51.24
2023-01-28T06:18:01.619Z,49.73
2023-01-28T06:20:28.188Z,52.25
2023-01-28T06:22:54.595Z,50.68
2023-01-28T06:25:21.106Z,53.04
2023-01-28T06:27:47.574Z,53.05
2023-01-28T06:30:14.504Z,50.31
2023-01-28T06:32:41.278Z,51.09
2023-01-28T06:35:08.792Z,50.25
2023-01-28T06:37:35.244Z,50.35
2023-01-28T06:40:01.935Z,50.35
2023-01-28T06:42:28.405Z,53.09
2023-01-28T06:44:54.843Z,52.12
2023-01-28T06:47:21.358Z,51.80
2023-01-28T06:49:47.760Z,51.46
2023-01-28T06:52:14.218Z,52.81
2023-01-28T06:54:40.621Z,53.27
2023-01-28T06:57:07.056Z,52.32
2023-01-28T06:59:33.489Z,53.71
2023-01-28T07:02:00.005Z,51.63
2023-01-28T07:04:26.445Z,52.37
2023-01-28T07:06:52.855Z,52.49
2023-01-28T07:09:19.261Z,53.46
2023-01-28T07:11:45.745Z,51.91
2023-01-28T07:14:12.187Z,50.89
2023-01-28T07:16:38.622Z,51.92
2023-01-28T07:19:05.077Z,51.49
2023-01-28T07:21:31.499Z,53.08
2023-01-28T07:23:58.071Z,50.23
2023-01-28T07:26:24.628Z,50.61
2023-01-28T07:28:51.040Z,49.88
2023-01-28T07:31:17.608Z,50.24
2023-01-28T07:33:44.128Z,50.05
2023-01-28T07:36:10.550Z,50.58
2023-01-28T07:38:37.030Z,51.52
2023-01-28T07:41:03.534Z,53.52
2023-01-28T07:43:29.987Z,52.06
2023-01-28T07:45:56.403Z,50.60
2023-01-28T07:48:22.841Z,51.17
2023-01-28T07:50:49.591Z,50.99
2023-01-28T07:53:17.564Z,50.86
2023-01-28T07:55:44.116Z,51.65
2023-01-28T07:58:11.601Z,50.59
2023-01-28T08:00:38.801Z,50.18
2023-01-28T08:03:08.162Z,50.63
2023-01-28T08:05:44.660Z,50.02
2023-01-28T08:08:11.323Z,50.79
2023-01-28T08:10:38.840Z,49.69
2023-01-28T08:13:06.004Z,49.35
2023-01-28T08:15:35.121Z,49.23
2023-01-28T08:18:02.359Z,49.76
2023-01-28T08:20:30.073Z,49.84
2023-01-28T08:23:11.912Z,49.42
2023-01-28T08:25:38.913Z,50.12
2023-01-28T08:28:06.427Z,49.43
2023-01-28T08:30:33.558Z,49.00
2023-01-28T08:33:00.900Z,49.03
2023-01-28T08:35:28.467Z,49.26
2023-01-28T08:37:55.261Z,48.64
2023-01-28T08:40:21.861Z,48.10
2023-01-28T08:42:53.092Z,48.39
2023-01-28T08:45:27.633Z,47.95
2023-01-28T08:47:59.085Z,47.93
2023-01-28T08:50:29.579Z,48.42
2023-01-28T08:52:57.890Z,49.19
2023-01-28T08:55:25.296Z,49.83
2023-01-28T08:57:52.309Z,50.04
2023-01-28T09:00:19.703Z,49.59
2023-01-28T09:02:46.428Z,51.36
2023-01-28T09:05:13.058Z,51.02
2023-01-28T09:07:39.529Z,51.16
2023-01-28T09:10:06.955Z,52.23
2023-01-28T09:12:33.394Z,51.50
2023-01-28T09:14:59.907Z,49.61
2023-01-28T09:17:26.364Z,48.41
2023-01-28T09:19:52.842Z,49.53
2023-01-28T09:22:19.398Z,49.83
2023-01-28T09:24:45.927Z,50.24
2023-01-28T09:27:12.601Z,49.89
2023-01-28T09:29:39.102Z,48.53
2023-01-28T09:32:07.277Z,49.08
2023-01-28T09:34:34.073Z,49.86
2023-01-28T09:37:00.737Z,49.90
2023-01-28T09:39:28.511Z,49.20
2023-01-28T09:42:09.670Z,49.59
2023-01-28T09:45:01.949Z,49.72
2023-01-28T09:47:34.126Z,48.44
2023-01-28T09:50:05.923Z,48.33
2023-01-28T09:52:36.929Z,50.51
2023-01-28T09:55:18.373Z,50.40
2023-01-28T09:57:55.303Z,49.45
2023-01-28T10:00:28.109Z,48.32
2023-01-28T10:03:22.825Z,49.35
2023-01-28T10:06:33.842Z,50.03
2023-01-28T10:09:25.806Z,49.98
2023-01-28T10:12:04.721Z,51.57
2023-01-28T10:15:03.545Z,49.87
2023-01-28T10:17:45.342Z,50.55
2023-01-28T10:20:11.783Z,51.23
2023-01-28T10:22:48.401Z,49.83
2023-01-28T10:25:35.877Z,48.69
2023-01-28T10:28:02.861Z,48.33
2023-01-28T10:30:35.107Z,49.33
2023-01-28T10:33:20.619Z,49.99
2023-01-28T10:35:48.391Z,50.37
2023-01-28T10:38:20.153Z,51.27
2023-01-28T10:40:48.171Z,49.34
2023-01-28T10:43:20.811Z,50.36
2023-01-28T10:46:07.550Z,49.72
2023-01-28T10:48:38.460Z,49.07
2023-01-28T10:51:06.296Z,49.80
2023-01-28T10:53:38.838Z,49.68
2023-01-28T10:56:12.216Z,50.49
2023-01-28T10:58:58.235Z,49.90
2023-01-28T11:01:24.733Z,49.71
2023-01-28T11:03:56.405Z,49.26
2023-01-28T11:06:28.477Z,49.83
2023-01-28T11:08:55.279Z,50.56
2023-01-28T11:11:28.510Z,50.21
2023-01-28T11:13:58.393Z,49.34
2023-01-28T11:16:26.559Z,51.56
2023-01-28T11:19:05.227Z,51.75
2023-01-28T11:21:33.021Z,50.51
2023-01-28T11:24:14.034Z,52.15
2023-01-28T11:26:45.669Z,50.34
2023-01-28T11:29:31.225Z,50.24
2023-01-28T11:31:59.276Z,49.46
2023-01-28T11:34:28.755Z,49.58
2023-01-28T11:37:13.439Z,50.67
2023-01-28T11:39:39.909Z,49.71
2023-01-28T11:42:20.640Z,49.56
2023-01-28T11:44:48.783Z,49.32
2023-01-28T11:47:36.903Z,49.13
2023-01-28T11:50:24.443Z,50.94
2023-01-28T11:53:06.835Z,50.74
2023-01-28T11:56:00.386Z,51.59
2023-01-28T11:58:29.515Z,50.92
2023-01-28T12:01:25.824Z,52.09
2023-01-28T12:04:26.383Z,49.99
2023-01-28T12:07:07.751Z,49.89
2023-01-28T12:09:56.932Z,49.38
2023-01-28T12:12:45.383Z,48.45
2023-01-28T12:15:24.092Z,48.57
2023-01-28T12:18:15.171Z,50.08
2023-01-28T12:20:51.790Z,50.00
2023-01-28T12:23:46.136Z,51.61
2023-01-28T12:26:35.562Z,52.06
2023-01-28T12:29:26.442Z,50.91
2023-01-28T12:32:20.032Z,50.53
2023-01-28T12:35:07.984Z,51.89
2023-01-28T12:37:41.294Z,50.63
2023-01-28T12:40:34.885Z,51.38
2023-01-28T12:43:40.412Z,51.11
2023-01-28T12:46:22.440Z,49.34
2023-01-28T12:49:05.368Z,48.79
2023-01-28T12:51:46.506Z,48.85
2023-01-28T12:54:18.414Z,47.99
2023-01-28T12:56:58.078Z,47.81
2023-01-28T12:59:32.982Z,48.97
2023-01-28T13:02:11.319Z,47.71
2023-01-28T13:08:23.308Z,48.32
2023-01-28T13:10:51.433Z,48.73
2023-01-28T13:13:33.143Z,50.30
2023-01-28T13:16:37.987Z,48.40
2023-01-28T13:19:22.596Z,51.65
2023-01-28T13:21:50.038Z,47.87
2023-01-28T13:24:16.509Z,46.74
2023-01-28T13:26:58.762Z,48.71
2023-01-28T13:29:33.588Z,49.30
2023-01-28T13:32:30.217Z,50.54
2023-01-28T13:35:06.866Z,51.38
2023-01-28T13:37:45.179Z,52.21
2023-01-28T13:43:06.936Z,52.64
2023-01-28T13:45:33.819Z,50.27
2023-01-28T13:48:03.959Z,50.24
2023-01-28T13:50:40.007Z,52.72
2023-01-28T13:53:29.459Z,51.61
2023-01-28T13:55:58.850Z,50.20
2023-01-28T13:58:25.305Z,53.21
2023-01-28T14:01:24.307Z,52.33
2023-01-28T14:03:53.739Z,50.58
2023-01-28T14:06:45.476Z,53.20
2023-01-28T14:09:21.636Z,50.55
2023-01-28T14:11:52.442Z,50.42
2023-01-28T14:14:24.877Z,50.88
2023-01-28T14:16:58.357Z,50.90
2023-01-28T14:19:32.807Z,51.61
2023-01-28T14:21:59.602Z,51.73
2023-01-28T14:24:27.193Z,49.69
2023-01-28T14:26:58.520Z,49.09
2023-01-28T14:30:02.439Z,50.95
2023-01-28T14:32:31.480Z,51.69
2023-01-28T14:35:02.073Z,51.16
2023-01-28T14:37:31.615Z,50.72
2023-01-28T14:40:02.908Z,49.98
2023-01-28T14:42:39.235Z,50.11
2023-01-28T14:45:24.243Z,50.53
2023-01-28T14:48:18.637Z,51.75
2023-01-28T14:50:45.042Z,51.73
2023-01-28T14:53:39.604Z,51.47
2023-01-28T14:56:08.532Z,52.19
2023-01-28T14:58:40.222Z,55.02
2023-01-28T15:01:20.675Z,52.19
2023-01-28T15:03:47.262Z,51.43
2023-01-28T15:06:17.042Z,52.17
2023-01-28T15:08:43.565Z,52.95
2023-01-28T15:11:18.307Z,53.84
2023-01-28T15:13:48.357Z,52.71
2023-01-28T15:16:23.731Z,53.03
2023-01-28T15:18:51.313Z,53.85
2023-01-28T15:21:22.287Z,54.97
2023-01-28T15:23:55.334Z,54.62
2023-01-28T15:26:24.768Z,54.37
2023-01-28T15:28:52.979Z,53.21
2023-01-28T15:31:23.829Z,55.11
2023-01-28T15:34:18.640Z,52.50
2023-01-28T15:36:47.811Z,53.84
2023-01-28T15:39:20.500Z,53.22
2023-01-28T15:42:07.233Z,53.41
2023-01-28T15:44:35.864Z,55.02
2023-01-28T15:47:24.301Z,54.58
2023-01-28T15:49:54.061Z,55.85
2023-01-28T15:52:28.913Z,57.05
2023-01-28T15:54:55.483Z,54.82
2023-01-28T15:57:27.420Z,54.71
2023-01-28T16:00:06.082Z,55.07
2023-01-28T16:02:33.053Z,56.94
2023-01-28T16:05:02.601Z,55.35
2023-01-28T16:07:32.541Z,55.46
2023-01-28T16:10:03.560Z,54.97
2023-01-28T16:12:30.338Z,55.09
2023-01-28T16:15:00.515Z,55.10
2023-01-28T16:17:35.203Z,55.79
2023-01-28T16:20:08.145Z,55.03
2023-01-28T16:22:37.817Z,54.45
2023-01-28T16:25:26.133Z,54.18
2023-01-28T16:27:52.863Z,54.84
2023-01-28T16:30:19.507Z,53.95
2023-01-28T16:32:46.403Z,53.69
2023-01-28T16:35:27.308Z,54.28
2023-01-28T16:37:56.327Z,56.28
2023-01-28T16:40:24.635Z,55.66
2023-01-28T16:42:54.146Z,55.93
2023-01-28T16:45:25.337Z,55.86
2023-01-28T16:47:53.033Z,55.52
2023-01-28T16:50:21.965Z,55.55
2023-01-28T16:52:51.055Z,55.97
2023-01-28T16:55:20.405Z,56.58
2023-01-28T16:57:49.762Z,55.79
2023-01-28T17:00:23.201Z,57.25
2023-01-28T17:02:51.014Z,56.86
2023-01-28T17:05:18.582Z,56.68
2023-01-28T17:07:48.679Z,56.10
2023-01-28T17:10:16.735Z,56.19
2023-01-28T17:12:43.942Z,56.54
2023-01-28T17:15:10.901Z,56.56
2023-01-28T17:17:37.368Z,56.77
2023-01-28T17:20:04.678Z,56.41
2023-01-28T17:22:31.083Z,56.02
2023-01-28T17:24:57.675Z,56.54
2023-01-28T17:27:24.136Z,56.71
2023-01-28T17:29:52.402Z,57.66
2023-01-28T17:32:19.007Z,57.41
2023-01-28T17:34:47.475Z,57.45
2023-01-28T17:37:14.039Z,57.27
2023-01-28T17:39:40.487Z,58.40
2023-01-28T17:42:06.946Z,57.62
2023-01-28T17:44:33.441Z,59.04
2023-01-28T17:46:59.905Z,58.26
2023-01-28T17:49:26.357Z,57.58
2023-01-28T17:51:53.132Z,57.71
2023-01-28T17:54:19.813Z,58.47
2023-01-28T17:56:46.308Z,57.96
2023-01-28T17:59:16.845Z,58.46
2023-01-28T18:01:44.783Z,57.75
2023-01-28T18:04:12.972Z,59.13
2023-01-28T18:06:39.456Z,58.21
2023-01-28T18:09:07.006Z,58.84
2023-01-28T18:11:33.534Z,58.92
2023-01-28T18:14:00.042Z,59.04
2023-01-28T18:16:26.829Z,58.95
2023-01-28T18:18:53.338Z,58.42
2023-01-28T18:21:21.641Z,59.16
2023-01-28T18:23:48.172Z,58.88
2023-01-28T18:26:14.590Z,59.29
2023-01-28T18:28:41.029Z,59.70
2023-01-28T18:31:08.318Z,59.78
2023-01-28T18:33:34.889Z,59.46
2023-01-28T18:36:01.369Z,59.46
2023-01-28T18:38:27.849Z,60.99
2023-01-28T18:40:55.655Z,60.81
2023-01-28T18:43:22.467Z,60.25
2023-01-28T18:45:51.756Z,60.41
2023-01-28T18:48:19.325Z,59.91
2023-01-28T18:50:53.094Z,60.45
2023-01-28T18:53:20.620Z,60.18
2023-01-28T18:55:47.151Z,59.43
2023-01-28T18:58:13.620Z,59.80
2023-01-28T19:00:40.181Z,60.19
2023-01-28T19:03:06.689Z,60.08
2023-01-28T19:05:37.733Z,60.96
2023-01-28T19:08:05.571Z,60.60
2023-01-28T19:10:31.991Z,60.68
2023-01-28T19:12:58.495Z,60.43
2023-01-28T19:15:24.952Z,60.29
2023-01-28T19:17:51.428Z,61.18
2023-01-28T19:20:18.360Z,60.54
2023-01-28T19:22:45.479Z,62.03
2023-01-28T19:25:12.292Z,61.54
2023-01-28T19:27:39.278Z,60.69
2023-01-28T19:30:06.563Z,60.65
2023-01-28T19:32:33.040Z,61.07
2023-01-28T19:34:59.508Z,61.12
2023-01-28T19:37:25.989Z,60.87
2023-01-28T19:39:52.432Z,60.68
2023-01-28T19:42:18.964Z,61.22
2023-01-28T19:44:45.404Z,61.75
2023-01-28T19:47:11.862Z,61.74
2023-01-28T19:49:38.282Z,61.50
2023-01-28T19:52:09.053Z,61.86
2023-01-28T19:54:35.543Z,61.48
2023-01-28T19:57:01.943Z,62.15
2023-01-28T19:59:28.374Z,62.32
2023-01-28T20:01:54.830Z,61.81
2023-01-28T20:04:21.326Z,60.93
2023-01-28T20:06:48.875Z,61.27
2023-01-28T20:09:17.105Z,61.42
2023-01-28T20:11:43.550Z,61.25
2023-01-28T20:14:10.057Z,61.52
2023-01-28T20:16:36.616Z,61.42
2023-01-28T20:19:08.833Z,62.06
2023-01-28T20:21:35.614Z,61.56
2023-01-28T20:24:03.155Z,61.08
2023-01-28T20:26:32.723Z,61.24
2023-01-28T20:29:07.827Z,62.41
2023-01-28T20:31:35.123Z,63.33
2023-01-28T20:34:02.103Z,62.00
2023-01-28T20:36:28.548Z,62.13
2023-01-28T20:38:55.038Z,62.74
2023-01-28T20:41:24.366Z,62.88
2023-01-28T20:43:52.471Z,63.50
2023-01-28T20:46:20.411Z,62.51
2023-01-28T20:48:47.884Z,61.95
2023-01-28T20:51:26.519Z,62.28
2023-01-28T20:53:53.912Z,62.31
2023-01-28T20:56:22.939Z,62.07
2023-01-28T20:58:55.255Z,62.20
2023-01-28T21:01:24.977Z,62.07
2023-01-28T21:03:52.159Z,62.36
2023-01-28T21:06:19.358Z,62.33
2023-01-28T21:08:46.332Z,62.21
2023-01-28T21:11:13.762Z,62.34
2023-01-28T21:13:40.711Z,62.29
2023-01-28T21:16:07.584Z,61.83
2023-01-28T21:18:34.075Z,61.47
2023-01-28T21:21:10.025Z,61.91
2023-01-28T21:23:36.489Z,62.64
2023-01-28T21:26:04.566Z,62.82
2023-01-28T21:28:31.423Z,62.84
2023-01-28T21:31:13.682Z,62.36
2023-01-28T21:33:40.295Z,62.38
2023-01-28T21:36:14.593Z,62.79
2023-01-28T21:38:41.842Z,62.64
2023-01-28T21:41:09.413Z,62.24
2023-01-28T21:43:36.426Z,63.40
2023-01-28T21:46:03.551Z,64.51
2023-01-28T21:48:30.679Z,62.94
2023-01-28T21:51:22.536Z,63.20
2023-01-28T21:53:49.338Z,63.08
2023-01-28T21:56:15.742Z,64.46
2023-01-28T21:59:00.562Z,67.15
2023-01-28T22:01:27.010Z,64.36
2023-01-28T22:03:53.434Z,64.33
2023-01-28T22:06:19.923Z,63.77
2023-01-28T22:08:46.384Z,63.26
2023-01-28T22:11:12.923Z,63.00
2023-01-28T22:13:39.589Z,62.94
2023-01-28T22:16:07.520Z,62.75
2023-01-28T22:18:33.995Z,62.52
2023-01-28T22:21:02.642Z,62.35
2023-01-28T22:23:29.313Z,64.15
2023-01-28T22:25:56.868Z,63.88
2023-01-28T22:28:24.246Z,63.16
2023-01-28T22:30:50.860Z,63.25
2023-01-28T22:33:17.422Z,63.08
2023-01-28T22:35:44.144Z,63.86
2023-01-28T22:38:10.873Z,67.24
2023-01-28T22:40:37.328Z,65.46
2023-01-28T22:43:03.967Z,63.48
2023-01-28T22:45:30.411Z,67.63
2023-01-28T22:47:56.827Z,66.05
2023-01-28T22:50:23.255Z,66.72
2023-01-28T22:52:49.852Z,68.01
2023-01-28T22:55:16.673Z,66.14
2023-01-28T22:57:43.120Z,64.08
2023-01-28T23:00:13.227Z,63.42
2023-01-28T23:02:40.123Z,63.60
2023-01-28T23:05:07.140Z,64.35
2023-01-28T23:07:33.603Z,66.63
2023-01-28T23:10:00.112Z,64.32
2023-01-28T23:12:26.532Z,66.37
2023-01-28T23:15:11.517Z,67.19
2023-01-28T23:17:56.421Z,64.73
2023-01-28T23:20:41.233Z,64.72
2023-01-28T23:23:33.884Z,63.82
2023-01-28T23:26:00.656Z,63.75
2023-01-28T23:28:27.415Z,65.49
2023-01-28T23:30:53.880Z,64.17
2023-01-28T23:33:20.326Z,64.34
2023-01-28T23:35:46.980Z,64.42
2023-01-28T23:38:13.437Z,64.83
2023-01-28T23:40:39.889Z,63.56
2023-01-28T23:43:06.306Z,63.33
2023-01-28T23:45:32.729Z,63.72
2023-01-28T23:47:59.166Z,63.40
2023-01-28T23:50:25.542Z,62.95
2023-01-28T23:52:52.030Z,62.74
2023-01-28T23:55:18.513Z,62.55
2023-01-28T23:57:44.924Z,63.58
